Time;durP1;ratioP1;P1;durP2;ratioP2;P2;SDS_P1;SDS_P2;PMS_P1;PMS_P2;Temp;Humidity;BMP_temperature;BMP_pressure;BME280_temperature;BME280_humidity;BME280_pressure;Samples;Min_cycle;Max_cycle;Signal;HPM_P1;HPM_P2
2024/04/03 00:01:57;;;;;;;2.67;1.33;;;;;;;;;;4994761;28;20050;-77
2024/04/03 00:04:23;;;;;;;4.75;1.30;;;;;;;;;;4984003;28;20158;-77
2024/04/03 00:06:48;;;;;;;2.35;0.73;;;;;;;;;;5006502;28;20050;-77
2024/04/03 00:09:14;;;;;;;3.50;0.90;;;;;;;;;;4994992;28;20556;-77
2024/04/03 00:11:39;;;;;;;2.60;1.38;;;;;;;;;;5000018;28;20412;-77
2024/04/03 00:14:05;;;;;;;1.98;1.00;;;;;;;;;;4984317;28;20053;-78
2024/04/03 00:16:30;;;;;;;2.85;1.20;;;;;;;;;;5012871;28;20054;-78
2024/04/03 00:18:56;;;;;;;2.80;0.90;;;;;;;;;;5007265;28;20058;-79
2024/04/03 00:21:21;;;;;;;2.17;1.05;;;;;;;;;;4977590;28;20416;-79
2024/04/03 00:23:47;;;;;;;1.35;0.80;;;;;;;;;;5003229;28;20448;-79
2024/04/03 00:26:12;;;;;;;5.53;1.40;;;;;;;;;;4981677;28;20050;-78
2024/04/03 00:28:38;;;;;;;3.33;1.08;;;;;;;;;;5011846;28;20085;-78
2024/04/03 00:31:03;;;;;;;1.83;0.50;;;;;;;;;;4960753;28;20054;-79
2024/04/03 00:33:29;;;;;;;4.72;1.77;;;;;;;;;;4956857;28;20058;-81
2024/04/03 00:35:54;;;;;;;3.55;1.02;;;;;;;;;;5000168;28;20046;-81
2024/04/03 00:38:20;;;;;;;2.10;0.90;;;;;;;;;;4973538;28;20053;-81
2024/04/03 00:40:52;;;;;;;1.70;0.90;;;;;;;;;;5001595;28;20042;-80
2024/04/03 00:43:18;;;;;;;2.20;0.90;;;;;;;;;;4961569;28;20054;-80
2024/04/03 00:45:43;;;;;;;1.25;0.75;;;;;;;;;;4980707;28;20050;-81
2024/04/03 00:48:09;;;;;;;5.53;0.85;;;;;;;;;;4978575;28;20105;-79
2024/04/03 00:50:34;;;;;;;1.35;0.63;;;;;;;;;;4989321;28;20050;-80
2024/04/03 00:53:00;;;;;;;2.80;0.90;;;;;;;;;;4997819;28;20050;-82
2024/04/03 00:55:25;;;;;;;3.20;0.93;;;;;;;;;;4978754;28;20067;-81
2024/04/03 00:57:51;;;;;;;3.78;1.00;;;;;;;;;;4998056;28;20054;-81
2024/04/03 01:00:17;;;;;;;1.70;1.00;;;;;;;;;;4962488;28;20050;-81
2024/04/03 01:02:42;;;;;;;1.70;0.95;;;;;;;;;;4992974;28;20047;-81
2024/04/03 01:05:08;;;;;;;2.03;0.70;;;;;;;;;;4977091;28;20085;-80
2024/04/03 01:07:35;;;;;;;2.83;0.60;;;;;;;;;;4975302;28;20050;-80
2024/04/03 01:10:01;;;;;;;2.03;0.80;;;;;;;;;;4991096;28;20429;-80
2024/04/03 01:12:31;;;;;;;2.20;0.88;;;;;;;;;;4962315;28;20205;-80
2024/04/03 01:14:57;;;;;;;1.45;0.60;;;;;;;;;;4962836;28;20049;-80
2024/04/03 01:17:23;;;;;;;2.80;0.75;;;;;;;;;;4967620;28;20144;-80
2024/04/03 01:19:49;;;;;;;2.67;0.73;;;;;;;;;;4975037;28;20046;-80
2024/04/03 01:22:14;;;;;;;2.20;0.70;;;;;;;;;;4973486;28;20042;-80
2024/04/03 01:24:40;;;;;;;1.40;0.70;;;;;;;;;;4964023;28;20065;-79
2024/04/03 01:27:06;;;;;;;1.88;0.80;;;;;;;;;;4972591;28;20063;-77
2024/04/03 01:29:32;;;;;;;1.85;0.80;;;;;;;;;;5024720;28;20069;-78
2024/04/03 01:31:57;;;;;;;2.83;0.90;;;;;;;;;;5029301;28;20109;-78
2024/04/03 01:34:23;;;;;;;1.10;0.57;;;;;;;;;;4978114;28;20042;-79
2024/04/03 01:36:48;;;;;;;2.13;0.80;;;;;;;;;;4996024;28;20101;-79
2024/04/03 01:39:15;;;;;;;3.63;0.80;;;;;;;;;;4987746;28;20099;-79
2024/04/03 01:41:41;;;;;;;2.00;0.75;;;;;;;;;;4974447;28;20058;-80
2024/04/03 01:44:07;;;;;;;3.00;1.10;;;;;;;;;;4975140;28;20258;-79
2024/04/03 01:46:32;;;;;;;3.30;0.88;;;;;;;;;;4983124;28;20077;-79
2024/04/03 01:48:58;;;;;;;4.13;0.90;;;;;;;;;;5005183;28;20086;-81
2024/04/03 01:51:23;;;;;;;2.95;0.70;;;;;;;;;;4969013;28;20081;-82
2024/04/03 01:53:49;;;;;;;2.97;1.48;;;;;;;;;;5008707;28;20428;-82
2024/04/03 01:56:15;;;;;;;1.80;0.75;;;;;;;;;;5004037;28;20630;-82
2024/04/03 01:58:42;;;;;;;2.63;0.70;;;;;;;;;;4977309;28;20054;-82
2024/04/03 02:01:07;;;;;;;3.45;1.02;;;;;;;;;;4978587;28;20054;-82
2024/04/03 02:03:33;;;;;;;1.88;0.60;;;;;;;;;;5009302;28;20500;-81
2024/04/03 02:05:58;;;;;;;1.80;0.57;;;;;;;;;;4990227;28;20511;-82
2024/04/03 02:08:24;;;;;;;2.15;0.70;;;;;;;;;;4973185;28;20108;-82
2024/04/03 02:10:50;;;;;;;2.28;0.75;;;;;;;;;;4989006;28;20117;-80
2024/04/03 02:13:16;;;;;;;2.35;0.90;;;;;;;;;;4997397;28;20047;-78
2024/04/03 02:15:50;;;;;;;2.22;0.90;;;;;;;;;;4998967;28;20057;-81
2024/04/03 02:18:16;;;;;;;1.02;0.65;;;;;;;;;;4971903;28;20531;-80
2024/04/03 02:20:41;;;;;;;2.05;0.88;;;;;;;;;;4978368;28;20049;-79
2024/04/03 02:23:07;;;;;;;2.45;0.90;;;;;;;;;;5011684;28;20428;-80
2024/04/03 02:25:33;;;;;;;2.10;0.73;;;;;;;;;;4989386;28;20440;-80
2024/04/03 02:27:58;;;;;;;3.03;0.70;;;;;;;;;;5003678;28;20467;-80
2024/04/03 02:30:24;;;;;;;2.60;0.65;;;;;;;;;;5007640;28;20089;-79
2024/04/03 02:32:49;;;;;;;2.20;0.93;;;;;;;;;;5008605;28;20056;-80
2024/04/03 02:35:15;;;;;;;1.42;0.70;;;;;;;;;;4978647;28;20431;-81
2024/04/03 02:37:40;;;;;;;4.55;1.23;;;;;;;;;;4979340;28;20461;-80
2024/04/03 02:40:06;;;;;;;2.05;0.93;;;;;;;;;;4989922;28;20050;-82
2024/04/03 02:42:32;;;;;;;2.42;1.00;;;;;;;;;;4992058;28;20053;-81
2024/04/03 02:44:57;;;;;;;2.13;0.60;;;;;;;;;;4988416;28;20504;-82
2024/04/03 02:47:24;;;;;;;2.28;1.25;;;;;;;;;;4977754;28;20054;-82
2024/04/03 02:49:49;;;;;;;2.30;0.82;;;;;;;;;;5008797;28;20050;-81
2024/04/03 02:52:15;;;;;;;1.30;1.10;;;;;;;;;;4977980;28;20120;-82
2024/04/03 02:54:40;;;;;;;0.80;0.65;;;;;;;;;;4990582;28;20057;-80
2024/04/03 02:57:06;;;;;;;2.08;0.52;;;;;;;;;;4981235;28;20058;-82
2024/04/03 02:59:32;;;;;;;2.85;0.85;;;;;;;;;;4994999;28;20051;-80
2024/04/03 03:01:58;;;;;;;2.83;0.80;;;;;;;;;;4988158;28;20054;-79
2024/04/03 03:04:24;;;;;;;1.52;0.85;;;;;;;;;;4974642;28;20058;-79
2024/04/03 03:06:50;;;;;;;0.63;0.50;;;;;;;;;;4992451;28;20050;-80
2024/04/03 03:09:17;;;;;;;1.85;0.63;;;;;;;;;;4992934;28;20068;-79
2024/04/03 03:11:44;;;;;;;1.58;0.55;;;;;;;;;;4996100;28;20058;-77
2024/04/03 03:14:09;;;;;;;1.05;0.80;;;;;;;;;;5010561;28;20492;-80
2024/04/03 03:16:35;;;;;;;1.05;0.68;;;;;;;;;;4975777;28;20100;-86
2024/04/03 03:19:00;;;;;;;2.80;0.70;;;;;;;;;;4994255;28;20062;-86
2024/04/03 03:21:26;;;;;;;1.02;0.57;;;;;;;;;;4994447;28;20575;-86
2024/04/03 03:23:51;;;;;;;1.90;0.47;;;;;;;;;;4974241;28;20054;-85
2024/04/03 03:26:17;;;;;;;2.55;0.60;;;;;;;;;;4979266;28;20069;-86
2024/04/03 03:28:42;;;;;;;1.80;0.68;;;;;;;;;;4996393;28;20061;-85
2024/04/03 03:31:08;;;;;;;1.63;0.75;;;;;;;;;;4989305;28;20064;-85
2024/04/03 03:33:35;;;;;;;2.97;1.00;;;;;;;;;;5016546;28;20054;-85
2024/04/03 03:36:01;;;;;;;1.23;0.63;;;;;;;;;;4994135;28;20492;-83
2024/04/03 03:38:26;;;;;;;2.60;0.80;;;;;;;;;;4990767;28;20068;-84
2024/04/03 03:40:52;;;;;;;2.05;0.98;;;;;;;;;;4993607;28;20053;-83
2024/04/03 03:43:18;;;;;;;2.58;0.70;;;;;;;;;;4980750;28;20069;-83
2024/04/03 03:45:44;;;;;;;1.13;0.70;;;;;;;;;;4978800;28;20057;-82
2024/04/03 03:48:10;;;;;;;3.42;1.02;;;;;;;;;;4985247;28;20060;-82
2024/04/03 03:53:20;;;;;;;5.18;1.10;;;;;;;;;;4985082;28;20431;-83
2024/04/03 03:55:45;;;;;;;3.22;0.90;;;;;;;;;;4983460;28;20054;-83
2024/04/03 03:58:11;;;;;;;2.65;0.93;;;;;;;;;;5003065;28;20086;-83
2024/04/03 04:00:36;;;;;;;4.00;0.85;;;;;;;;;;4978197;28;20489;-82
2024/04/03 04:03:02;;;;;;;3.05;1.10;;;;;;;;;;4979227;28;20125;-83
2024/04/03 04:05:28;;;;;;;2.72;1.02;;;;;;;;;;4962571;28;20080;-82
2024/04/03 04:07:55;;;;;;;2.15;0.77;;;;;;;;;;4957411;28;20070;-82
2024/04/03 04:10:20;;;;;;;1.58;0.77;;;;;;;;;;4982111;28;20038;-82
2024/04/03 04:12:46;;;;;;;1.38;0.57;;;;;;;;;;4981987;28;20050;-82
2024/04/03 04:15:11;;;;;;;2.22;0.75;;;;;;;;;;4981093;28;20046;-83
2024/04/03 04:17:37;;;;;;;2.03;0.80;;;;;;;;;;4981019;28;20536;-82
2024/04/03 04:20:09;;;;;;;1.83;0.70;;;;;;;;;;5019177;28;20074;-82
2024/04/03 04:22:34;;;;;;;2.25;1.15;;;;;;;;;;5003596;28;20030;-82
2024/04/03 04:25:01;;;;;;;1.98;0.90;;;;;;;;;;5022686;28;20511;-82
2024/04/03 04:27:26;;;;;;;2.15;0.80;;;;;;;;;;4989018;28;20062;-82
2024/04/03 04:29:52;;;;;;;0.70;0.70;;;;;;;;;;4979032;28;20054;-82
2024/04/03 04:32:20;;;;;;;1.95;0.80;;;;;;;;;;4985307;28;20065;-82
2024/04/03 04:34:45;;;;;;;1.65;0.85;;;;;;;;;;4964710;28;20046;-82
2024/04/03 04:37:11;;;;;;;3.42;0.70;;;;;;;;;;4965420;28;20054;-82
2024/04/03 04:39:37;;;;;;;2.78;0.88;;;;;;;;;;4966416;28;20097;-82
2024/04/03 04:42:03;;;;;;;2.97;0.80;;;;;;;;;;4965847;28;20050;-82
2024/04/03 04:44:29;;;;;;;0.95;0.85;;;;;;;;;;4980488;28;20492;-83
2024/04/03 04:46:56;;;;;;;1.70;0.82;;;;;;;;;;4988234;28;20057;-82
2024/04/03 04:49:22;;;;;;;0.90;0.63;;;;;;;;;;4982472;28;20591;-82
2024/04/03 04:51:47;;;;;;;3.03;0.80;;;;;;;;;;4980753;28;20137;-81
2024/04/03 04:54:16;;;;;;;2.53;0.80;;;;;;;;;;4965908;28;20073;-82
2024/04/03 04:56:42;;;;;;;1.58;1.05;;;;;;;;;;4982032;28;20054;-81
2024/04/03 04:59:08;;;;;;;2.85;1.10;;;;;;;;;;4992110;28;20050;-82
2024/04/03 05:01:34;;;;;;;2.13;1.15;;;;;;;;;;4980836;28;20051;-82
2024/04/03 05:04:00;;;;;;;2.50;0.77;;;;;;;;;;4997902;28;20322;-81
2024/04/03 05:06:26;;;;;;;1.98;0.82;;;;;;;;;;4980136;28;20377;-80
2024/04/03 05:08:51;;;;;;;1.73;0.80;;;;;;;;;;4963959;28;20520;-81
2024/04/03 05:11:17;;;;;;;3.72;1.00;;;;;;;;;;4964172;28;20060;-79
2024/04/03 05:13:43;;;;;;;4.40;1.30;;;;;;;;;;4961705;28;20484;-77
2024/04/03 05:16:09;;;;;;;1.20;0.63;;;;;;;;;;4978082;28;20089;-78
2024/04/03 05:18:35;;;;;;;2.10;0.50;;;;;;;;;;4980224;28;20050;-78
2024/04/03 05:21:00;;;;;;;2.08;0.95;;;;;;;;;;4980464;28;20076;-78
2024/04/03 05:23:26;;;;;;;7.30;1.02;;;;;;;;;;4977448;28;20054;-78
2024/04/03 05:26:03;;;;;;;1.80;0.90;;;;;;;;;;4967456;28;20064;-77
2024/04/03 05:28:30;;;;;;;3.10;0.73;;;;;;;;;;5001153;28;20069;-78
2024/04/03 05:31:06;;;;;;;1.92;0.60;;;;;;;;;;4996639;28;20062;-78
2024/04/03 05:33:32;;;;;;;1.77;1.05;;;;;;;;;;4996324;28;20057;-78
2024/04/03 05:35:58;;;;;;;5.28;0.98;;;;;;;;;;5000574;28;20145;-79
2024/04/03 05:38:24;;;;;;;3.78;0.88;;;;;;;;;;4999630;28;20054;-79
2024/04/03 05:40:49;;;;;;;2.53;0.65;;;;;;;;;;4998944;28;20436;-82
2024/04/03 05:43:15;;;;;;;3.42;0.60;;;;;;;;;;4961926;28;20065;-81
2024/04/03 05:45:41;;;;;;;1.55;0.70;;;;;;;;;;4958994;28;20054;-79
2024/04/03 05:48:07;;;;;;;0.93;0.57;;;;;;;;;;4974139;28;20559;-79
2024/04/03 05:50:32;;;;;;;1.25;0.82;;;;;;;;;;4984734;28;20547;-79
2024/04/03 05:52:58;;;;;;;3.63;0.85;;;;;;;;;;5011653;28;20053;-81
2024/04/03 05:55:23;;;;;;;1.55;0.93;;;;;;;;;;4983875;28;20057;-79
2024/04/03 05:57:49;;;;;;;1.35;0.80;;;;;;;;;;4978012;28;20054;-77
2024/04/03 06:00:14;;;;;;;1.98;0.90;;;;;;;;;;4958978;28;20047;-79
2024/04/03 06:02:40;;;;;;;2.05;0.90;;;;;;;;;;4989289;28;20057;-79
2024/04/03 06:05:06;;;;;;;2.17;0.90;;;;;;;;;;4969153;28;20092;-80
2024/04/03 06:07:32;;;;;;;2.75;0.60;;;;;;;;;;5013119;28;20504;-80
2024/04/03 06:09:58;;;;;;;1.05;0.65;;;;;;;;;;4983818;28;20077;-80
2024/04/03 06:12:23;;;;;;;2.60;0.75;;;;;;;;;;4968817;28;20519;-81
2024/04/03 06:14:49;;;;;;;1.48;1.00;;;;;;;;;;4981211;28;20046;-77
2024/04/03 06:17:15;;;;;;;1.40;0.93;;;;;;;;;;4977526;28;20051;-78
2024/04/03 06:19:40;;;;;;;4.25;0.80;;;;;;;;;;4958635;28;20050;-78
2024/04/03 06:22:06;;;;;;;1.33;0.70;;;;;;;;;;4975411;28;20108;-78
2024/04/03 06:24:32;;;;;;;2.97;0.73;;;;;;;;;;4974749;28;20076;-77
2024/04/03 06:26:57;;;;;;;2.95;1.02;;;;;;;;;;4975340;28;20086;-79
2024/04/03 06:29:23;;;;;;;3.63;1.40;;;;;;;;;;4973060;28;20058;-79
2024/04/03 06:31:50;;;;;;;6.00;1.05;;;;;;;;;;4986596;28;20050;-78
2024/04/03 06:34:16;;;;;;;3.22;0.95;;;;;;;;;;4993999;28;20042;-78
2024/04/03 06:36:42;;;;;;;3.30;1.02;;;;;;;;;;4964464;28;20076;-78
2024/04/03 06:39:08;;;;;;;2.28;0.90;;;;;;;;;;4972789;28;20504;-79
2024/04/03 06:41:34;;;;;;;4.65;1.13;;;;;;;;;;4962621;28;20085;-79
2024/04/03 06:44:00;;;;;;;2.15;0.55;;;;;;;;;;4968670;28;20057;-78
2024/04/03 06:46:25;;;;;;;2.90;0.75;;;;;;;;;;5000813;28;20144;-83
2024/04/03 06:48:51;;;;;;;1.40;0.63;;;;;;;;;;4980528;28;20675;-78
2024/04/03 06:51:16;;;;;;;2.20;0.77;;;;;;;;;;4968253;28;20058;-82
2024/04/03 06:53:42;;;;;;;1.33;0.80;;;;;;;;;;4989223;28;20050;-82
2024/04/03 06:56:08;;;;;;;1.35;0.77;;;;;;;;;;4978753;28;20054;-81
2024/04/03 06:58:41;;;;;;;2.28;1.30;;;;;;;;;;4978176;28;20054;-88
2024/04/03 07:01:07;;;;;;;1.15;0.75;;;;;;;;;;4997212;28;20054;-80
2024/04/03 07:03:33;;;;;;;2.50;0.80;;;;;;;;;;5011497;28;20390;-80
2024/04/03 07:05:59;;;;;;;2.58;1.08;;;;;;;;;;5005312;28;20088;-79
2024/04/03 07:08:24;;;;;;;0.47;0.45;;;;;;;;;;4982580;28;20513;-79
2024/04/03 07:10:50;;;;;;;0.82;0.65;;;;;;;;;;4999324;28;20054;-80
2024/04/03 07:13:15;;;;;;;1.13;0.70;;;;;;;;;;4987972;28;20315;-79
2024/04/03 07:15:45;;;;;;;2.10;0.73;;;;;;;;;;4976155;28;20065;-78
2024/04/03 07:18:11;;;;;;;3.53;0.80;;;;;;;;;;4967642;28;20049;-82
2024/04/03 07:20:37;;;;;;;1.45;0.95;;;;;;;;;;5001830;28;20050;-81
2024/04/03 07:23:02;;;;;;;3.63;1.00;;;;;;;;;;4987547;28;20076;-77
2024/04/03 07:25:28;;;;;;;0.50;0.50;;;;;;;;;;5001344;28;20328;-81
2024/04/03 07:27:54;;;;;;;2.00;0.70;;;;;;;;;;5016172;28;20034;-82
2024/04/03 07:30:20;;;;;;;1.25;0.65;;;;;;;;;;5023069;28;20046;-79
2024/04/03 07:32:46;;;;;;;2.08;0.80;;;;;;;;;;4998069;28;20102;-79
2024/04/03 07:35:12;;;;;;;2.40;0.85;;;;;;;;;;4964210;28;20053;-81
2024/04/03 07:37:38;;;;;;;2.15;1.42;;;;;;;;;;4951588;28;20050;-82
2024/04/03 07:40:05;;;;;;;6.88;1.40;;;;;;;;;;4984047;28;20043;-83
2024/04/03 07:42:31;;;;;;;2.90;1.40;;;;;;;;;;4981339;28;20042;-80
2024/04/03 07:44:56;;;;;;;4.38;1.20;;;;;;;;;;4996096;28;20069;-80
2024/04/03 07:47:22;;;;;;;2.42;1.20;;;;;;;;;;4965051;28;20553;-87
2024/04/03 07:49:50;;;;;;;0.80;0.60;;;;;;;;;;4965965;28;20061;-84
2024/04/03 07:52:16;;;;;;;2.58;0.98;;;;;;;;;;5003340;28;20394;-85
2024/04/03 07:54:41;;;;;;;2.20;0.95;;;;;;;;;;5004216;28;20137;-78
2024/04/03 07:57:07;;;;;;;3.22;0.90;;;;;;;;;;4982342;28;20134;-77
2024/04/03 07:59:34;;;;;;;2.20;0.90;;;;;;;;;;4994513;28;20100;-78
2024/04/03 08:02:00;;;;;;;3.00;0.75;;;;;;;;;;5002391;28;20065;-77
2024/04/03 08:04:25;;;;;;;1.38;0.55;;;;;;;;;;4990678;28;20062;-77
2024/04/03 08:06:51;;;;;;;2.08;0.90;;;;;;;;;;4964141;28;20145;-78
2024/04/03 08:09:16;;;;;;;1.95;0.60;;;;;;;;;;4997223;28;20081;-78
2024/04/03 08:11:42;;;;;;;2.63;1.20;;;;;;;;;;5000425;28;20054;-81
2024/04/03 08:14:08;;;;;;;4.57;1.27;;;;;;;;;;4982354;28;20141;-85
2024/04/03 08:16:35;;;;;;;1.50;0.90;;;;;;;;;;4988326;28;20047;-89
2024/04/03 08:19:00;;;;;;;1.55;0.90;;;;;;;;;;4984963;28;20065;-84
2024/04/03 08:21:26;;;;;;;1.38;0.77;;;;;;;;;;4993303;28;20523;-80
2024/04/03 08:23:51;;;;;;;2.38;0.73;;;;;;;;;;5013894;28;20165;-80
2024/04/03 08:26:17;;;;;;;2.30;0.75;;;;;;;;;;5004861;28;20059;-81
2024/04/03 08:28:43;;;;;;;0.88;0.80;;;;;;;;;;5007953;28;20065;-85
2024/04/03 08:31:15;;;;;;;1.13;0.60;;;;;;;;;;4994678;28;20068;-78
2024/04/03 08:33:41;;;;;;;1.73;0.90;;;;;;;;;;4981264;28;20061;-80
2024/04/03 08:36:07;;;;;;;1.75;0.68;;;;;;;;;;4961577;28;20050;-79
2024/04/03 08:38:33;;;;;;;10.80;1.10;;;;;;;;;;4953415;28;20504;-82
2024/04/03 08:40:59;;;;;;;0.77;0.70;;;;;;;;;;4983794;28;20054;-78
2024/04/03 08:43:25;;;;;;;2.58;0.95;;;;;;;;;;4986485;28;20100;-83
2024/04/03 08:45:53;;;;;;;12.10;2.20;;;;;;;;;;4959375;28;20058;-78
2024/04/03 08:48:21;;;;;;;5.82;1.30;;;;;;;;;;4996200;28;20057;-79
2024/04/03 08:50:46;;;;;;;2.60;0.73;;;;;;;;;;4955919;28;20057;-81
2024/04/03 08:53:20;;;;;;;3.58;0.93;;;;;;;;;;4992454;28;20130;-81
2024/04/03 08:55:51;;;;;;;3.17;0.70;;;;;;;;;;4977355;28;20129;-81
2024/04/03 08:58:20;;;;;;;1.67;0.60;;;;;;;;;;4986562;28;20100;-77
2024/04/03 09:00:46;;;;;;;6.28;1.10;;;;;;;;;;4979149;28;20618;-77
2024/04/03 09:03:13;;;;;;;3.50;1.00;;;;;;;;;;5008504;28;20053;-84
2024/04/03 09:05:39;;;;;;;5.03;1.17;;;;;;;;;;4973971;28;20043;-83
2024/04/03 09:08:06;;;;;;;3.33;1.00;;;;;;;;;;4991611;28;20117;-80
2024/04/03 09:10:32;;;;;;;1.80;0.73;;;;;;;;;;4993724;28;20116;-84
2024/04/03 09:13:07;;;;;;;2.78;0.73;;;;;;;;;;4959771;28;20058;-84
2024/04/03 09:15:33;;;;;;;0.70;0.60;;;;;;;;;;4995440;28;20065;-83
2024/04/03 09:18:03;;;;;;;0.93;0.50;;;;;;;;;;4985887;28;20500;-82
2024/04/03 09:20:29;;;;;;;0.98;0.40;;;;;;;;;;4988727;28;20527;-82
2024/04/03 09:22:55;;;;;;;2.53;0.80;;;;;;;;;;4958272;28;20046;-82
2024/04/03 09:25:23;;;;;;;2.15;0.60;;;;;;;;;;4995229;28;20046;-83
2024/04/03 09:27:49;;;;;;;3.33;0.65;;;;;;;;;;5007453;28;20066;-85
2024/04/03 09:30:15;;;;;;;3.53;0.90;;;;;;;;;;5008714;28;20054;-83
2024/04/03 09:32:40;;;;;;;2.63;0.82;;;;;;;;;;4988643;28;20047;-81
2024/04/03 09:35:07;;;;;;;2.15;0.80;;;;;;;;;;5007157;28;20056;-79
2024/04/03 09:37:35;;;;;;;0.93;0.60;;;;;;;;;;4978930;28;20051;-79
2024/04/03 09:40:03;;;;;;;0.63;0.40;;;;;;;;;;4964460;28;20050;-80
2024/04/03 09:42:29;;;;;;;1.23;0.60;;;;;;;;;;4969905;28;20057;-80
2024/04/03 09:44:56;;;;;;;2.83;0.63;;;;;;;;;;4980405;28;20054;-79
2024/04/03 09:47:22;;;;;;;1.30;0.80;;;;;;;;;;4987036;28;20061;-79
2024/04/03 09:49:49;;;;;;;2.83;0.73;;;;;;;;;;4952343;28;20531;-87
2024/04/03 09:52:15;;;;;;;2.03;1.23;;;;;;;;;;4962828;28;20058;-78
2024/04/03 09:54:40;;;;;;;1.95;0.60;;;;;;;;;;4985064;28;20559;-78
2024/04/03 09:57:06;;;;;;;1.33;0.60;;;;;;;;;;4963265;28;20473;-77
2024/04/03 09:59:35;;;;;;;1.38;0.80;;;;;;;;;;4987047;28;20049;-78
2024/04/03 10:02:01;;;;;;;4.38;0.80;;;;;;;;;;4982565;28;20093;-78
2024/04/03 10:04:33;;;;;;;0.57;0.47;;;;;;;;;;4963666;28;20060;-78
2024/04/03 10:06:58;;;;;;;1.00;0.60;;;;;;;;;;4986607;28;20054;-78
2024/04/03 10:09:25;;;;;;;1.05;0.55;;;;;;;;;;4998849;28;20397;-77
2024/04/03 10:11:57;;;;;;;2.60;0.40;;;;;;;;;;4968579;28;20058;-77
2024/04/03 10:14:27;;;;;;;1.55;0.80;;;;;;;;;;4964947;28;20050;-78
2024/04/03 10:16:53;;;;;;;1.83;0.60;;;;;;;;;;4951823;28;20054;-78
2024/04/03 10:19:23;;;;;;;1.25;0.55;;;;;;;;;;4965903;28;20046;-77
2024/04/03 10:21:49;;;;;;;0.50;0.38;;;;;;;;;;4986458;28;20051;-76
2024/04/03 10:24:17;;;;;;;1.55;0.77;;;;;;;;;;5011183;28;20042;-76
2024/04/03 10:26:44;;;;;;;1.08;0.70;;;;;;;;;;5025309;28;20034;-76
2024/04/03 10:29:10;;;;;;;2.05;0.38;;;;;;;;;;5009799;28;20046;-78
2024/04/03 10:31:35;;;;;;;0.68;0.52;;;;;;;;;;4979549;28;20412;-78
2024/04/03 10:34:01;;;;;;;2.45;0.43;;;;;;;;;;4987777;28;20484;-78
2024/04/03 10:36:28;;;;;;;3.50;1.63;;;;;;;;;;4948626;28;20448;-78
2024/04/03 10:38:54;;;;;;;0.52;0.47;;;;;;;;;;4983730;28;20081;-78
2024/04/03 10:41:20;;;;;;;1.20;0.85;;;;;;;;;;4979806;28;20555;-78
2024/04/03 10:43:45;;;;;;;1.40;1.10;;;;;;;;;;4956273;28;20065;-78
2024/04/03 10:46:14;;;;;;;4.53;1.50;;;;;;;;;;4993693;28;20053;-78
2024/04/03 10:48:40;;;;;;;2.78;1.52;;;;;;;;;;4982441;28;20065;-77
2024/04/03 10:51:06;;;;;;;1.30;1.00;;;;;;;;;;4950445;28;20050;-77
2024/04/03 10:53:35;;;;;;;0.50;0.50;;;;;;;;;;4989407;28;20076;-78
2024/04/03 10:56:00;;;;;;;0.63;0.30;;;;;;;;;;4976345;28;20049;-77
2024/04/03 10:58:27;;;;;;;1.27;0.20;;;;;;;;;;4943938;28;20089;-77
2024/04/03 11:00:52;;;;;;;0.32;0.32;;;;;;;;;;4951145;28;20053;-78
2024/04/03 11:03:19;;;;;;;0.38;0.20;;;;;;;;;;4989332;28;20077;-80
2024/04/03 11:05:44;;;;;;;0.70;0.30;;;;;;;;;;4999603;28;20042;-80
2024/04/03 11:08:12;;;;;;;1.00;0.40;;;;;;;;;;4978922;28;20062;-80
2024/04/03 11:10:38;;;;;;;0.20;0.20;;;;;;;;;;4965116;28;20100;-79
2024/04/03 11:13:15;;;;;;;0.20;0.13;;;;;;;;;;4977216;28;20042;-82
2024/04/03 11:15:43;;;;;;;0.85;0.30;;;;;;;;;;4984443;28;20100;-76
2024/04/03 11:18:10;;;;;;;0.77;0.20;;;;;;;;;;4976252;28;20411;-77
2024/04/03 11:20:36;;;;;;;1.65;0.22;;;;;;;;;;4963271;28;20101;-78
2024/04/03 11:23:06;;;;;;;0.32;0.22;;;;;;;;;;5005811;28;20038;-81
2024/04/03 11:25:32;;;;;;;1.00;0.35;;;;;;;;;;4992517;28;20057;-77
2024/04/03 11:28:00;;;;;;;1.20;0.20;;;;;;;;;;4975870;28;20065;-75
2024/04/03 11:30:28;;;;;;;0.57;0.30;;;;;;;;;;4985516;28;20062;-76
2024/04/03 11:32:54;;;;;;;0.43;0.13;;;;;;;;;;4952131;28;20057;-75
2024/04/03 11:35:20;;;;;;;0.20;0.20;;;;;;;;;;4993565;28;20082;-75
2024/04/03 11:37:45;;;;;;;1.42;0.40;;;;;;;;;;4976744;28;20050;-78
2024/04/03 11:40:11;;;;;;;1.13;0.30;;;;;;;;;;5002563;28;20523;-78
2024/04/03 11:42:37;;;;;;;0.95;0.30;;;;;;;;;;4954705;28;20058;-77
2024/04/03 11:45:06;;;;;;;0.20;0.20;;;;;;;;;;4960198;28;20511;-78
2024/04/03 11:47:32;;;;;;;1.15;0.13;;;;;;;;;;4983873;28;20061;-78
2024/04/03 11:49:59;;;;;;;0.17;0.15;;;;;;;;;;4994509;28;20141;-78
2024/04/03 11:52:25;;;;;;;1.45;0.50;;;;;;;;;;4968637;28;20110;-78
2024/04/03 11:54:50;;;;;;;6.68;2.20;;;;;;;;;;4965644;28;20053;-78
2024/04/03 11:57:16;;;;;;;14.07;4.72;;;;;;;;;;4964774;28;20084;-78
2024/04/03 11:59:41;;;;;;;17.88;6.65;;;;;;;;;;4992361;28;20342;-78
2024/04/03 12:02:07;;;;;;;2.80;1.20;;;;;;;;;;4962382;28;20116;-78
2024/04/03 12:04:33;;;;;;;2.03;1.33;;;;;;;;;;4989398;28;20470;-77
2024/04/03 12:06:58;;;;;;;0.75;0.65;;;;;;;;;;4987269;28;20054;-85
2024/04/03 12:09:24;;;;;;;0.65;0.40;;;;;;;;;;4954445;28;20050;-84
2024/04/03 12:11:50;;;;;;;0.43;0.43;;;;;;;;;;4969355;28;20520;-84
2024/04/03 12:14:15;;;;;;;0.20;0.20;;;;;;;;;;4956556;28;20082;-82
2024/04/03 12:16:41;;;;;;;1.55;0.40;;;;;;;;;;4987323;28;20146;-82
2024/04/03 12:19:26;;;;;;;0.30;0.30;;;;;;;;;;4965728;28;20250;-83
2024/04/03 12:21:53;;;;;;;1.33;0.25;;;;;;;;;;5004032;28;20053;-76
2024/04/03 12:24:19;;;;;;;0.75;0.20;;;;;;;;;;4982365;28;20054;-75
2024/04/03 12:26:45;;;;;;;0.75;0.20;;;;;;;;;;4949177;28;20501;-79
2024/04/03 12:29:12;;;;;;;0.40;0.13;;;;;;;;;;4998158;28;20054;-78
2024/04/03 12:31:37;;;;;;;2.55;0.40;;;;;;;;;;4977201;28;20058;-77
2024/04/03 12:34:06;;;;;;;0.30;0.25;;;;;;;;;;4994073;28;20052;-75
2024/04/03 12:36:32;;;;;;;0.90;0.30;;;;;;;;;;4961594;28;20050;-75
2024/04/03 12:38:57;;;;;;;0.25;0.15;;;;;;;;;;4950089;28;20464;-75
2024/04/03 12:41:23;;;;;;;0.38;0.35;;;;;;;;;;4985809;28;20392;-79
2024/04/03 12:43:48;;;;;;;0.43;0.20;;;;;;;;;;4992106;28;20610;-78
2024/04/03 12:46:14;;;;;;;0.43;0.10;;;;;;;;;;4995224;28;20062;-79
2024/04/03 12:48:40;;;;;;;0.30;0.10;;;;;;;;;;4985676;28;20114;-77
2024/04/03 12:51:06;;;;;;;1.55;0.20;;;;;;;;;;4996661;28;20056;-78
2024/04/03 12:53:32;;;;;;;1.67;0.30;;;;;;;;;;4998445;28;20054;-78
2024/04/03 12:55:57;;;;;;;0.55;0.20;;;;;;;;;;4954529;28;20054;-78
2024/04/03 12:58:23;;;;;;;0.20;0.10;;;;;;;;;;4981175;28;20042;-78
2024/04/03 13:00:49;;;;;;;0.20;0.20;;;;;;;;;;4958995;28;20070;-78
2024/04/03 13:03:14;;;;;;;0.40;0.22;;;;;;;;;;4990686;28;20110;-78
2024/04/03 13:05:46;;;;;;;0.38;0.38;;;;;;;;;;4966350;28;20058;-77
2024/04/03 13:08:12;;;;;;;1.47;0.30;;;;;;;;;;4998481;28;20520;-78
2024/04/03 13:10:37;;;;;;;0.30;0.30;;;;;;;;;;5007489;28;20129;-78
2024/04/03 13:13:06;;;;;;;0.22;0.20;;;;;;;;;;4982535;28;20115;-78
2024/04/03 13:15:32;;;;;;;0.55;0.30;;;;;;;;;;4984422;28;20069;-77
2024/04/03 13:17:59;;;;;;;0.20;0.20;;;;;;;;;;4994374;28;20046;-76
2024/04/03 13:20:24;;;;;;;0.47;0.30;;;;;;;;;;5027652;28;20034;-79
2024/04/03 13:22:56;;;;;;;0.20;0.20;;;;;;;;;;5020362;28;20045;-79
2024/04/03 13:25:25;;;;;;;0.30;0.30;;;;;;;;;;4983460;28;20058;-80
2024/04/03 13:27:51;;;;;;;0.40;0.30;;;;;;;;;;4974022;28;20519;-80
2024/04/03 13:30:17;;;;;;;0.82;0.70;;;;;;;;;;5010550;28;20049;-81
2024/04/03 13:32:43;;;;;;;0.47;0.40;;;;;;;;;;4963970;28;20186;-85
2024/04/03 13:35:08;;;;;;;1.35;0.40;;;;;;;;;;4977729;28;20054;-83
2024/04/03 13:37:37;;;;;;;0.65;0.20;;;;;;;;;;4994368;28;20640;-81
2024/04/03 13:40:08;;;;;;;1.00;0.30;;;;;;;;;;4962530;28;20097;-82
2024/04/03 13:42:34;;;;;;;0.25;0.20;;;;;;;;;;4963922;28;20058;-81
2024/04/03 13:45:00;;;;;;;0.20;0.20;;;;;;;;;;4978873;28;20078;-80
2024/04/03 13:47:26;;;;;;;0.20;0.20;;;;;;;;;;4937963;28;20158;-78
2024/04/03 13:49:51;;;;;;;0.50;0.43;;;;;;;;;;4983078;28;20061;-78
2024/04/03 13:52:18;;;;;;;0.50;0.40;;;;;;;;;;4970396;28;20093;-78
2024/04/03 13:54:47;;;;;;;0.82;0.30;;;;;;;;;;4979427;28;20054;-78
2024/04/03 13:57:13;;;;;;;0.20;0.20;;;;;;;;;;5004460;28;20053;-79
2024/04/03 13:59:39;;;;;;;1.48;0.60;;;;;;;;;;4988736;28;20046;-76
2024/04/03 14:02:05;;;;;;;0.90;0.30;;;;;;;;;;5013857;28;20038;-77
2024/04/03 14:04:31;;;;;;;2.05;1.85;;;;;;;;;;5020553;28;20065;-77
2024/04/03 14:06:56;;;;;;;2.05;0.60;;;;;;;;;;4979095;28;20061;-77
2024/04/03 14:09:22;;;;;;;0.40;0.40;;;;;;;;;;4949353;28;20069;-80
2024/04/03 14:11:48;;;;;;;0.30;0.30;;;;;;;;;;4961813;28;20090;-79
2024/04/03 14:14:13;;;;;;;1.95;0.50;;;;;;;;;;5002114;28;20049;-78
2024/04/03 14:16:39;;;;;;;1.08;0.60;;;;;;;;;;4979852;28;20125;-78
2024/04/03 14:19:05;;;;;;;0.90;0.50;;;;;;;;;;5009667;28;20053;-79
2024/04/03 14:21:30;;;;;;;1.42;0.75;;;;;;;;;;5007687;28;20086;-78
2024/04/03 14:23:56;;;;;;;3.08;2.80;;;;;;;;;;4986468;28;20979;-79
2024/04/03 14:26:22;;;;;;;9.10;8.30;;;;;;;;;;4961794;28;20058;-79
2024/04/03 14:28:48;;;;;;;2.97;2.78;;;;;;;;;;4950910;28;20049;-78
2024/04/03 14:31:13;;;;;;;0.77;0.77;;;;;;;;;;4991887;28;20053;-79
2024/04/03 14:33:39;;;;;;;0.73;0.63;;;;;;;;;;5001812;28;20518;-79
2024/04/03 14:36:05;;;;;;;0.40;0.30;;;;;;;;;;4977957;28;20047;-79
2024/04/03 14:38:30;;;;;;;0.50;0.50;;;;;;;;;;4962958;28;20756;-80
2024/04/03 14:40:56;;;;;;;0.60;0.40;;;;;;;;;;5000006;28;20056;-78